Time;durP1;ratioP1;P1;durP2;ratioP2;P2;SDS_P1;SDS_P2;PMS_P1;PMS_P2;Temp;Humidity;BMP_temperature;BMP_pressure;BME280_temperature;BME280_humidity;BME280_pressure;Samples;Min_cycle;Max_cycle;Signal;HPM_P1;HPM_P2
2021/04/12 00:00:15;;;;;;;8.30;7.70;;;6.70;99.90;;;7.42;96.49;97864.53;5226532;28;20248;-58
2021/04/12 00:02:52;;;;;;;7.13;6.63;;;6.70;99.90;;;7.47;96.41;97874.13;5223507;28;20201;-59
2021/04/12 00:05:40;;;;;;;8.33;7.63;;;6.80;99.90;;;7.53;97.58;97878.00;5223815;28;20238;-58
2021/04/12 00:08:24;;;;;;;7.53;6.93;;;6.90;99.90;;;7.51;96.80;97877.00;5225250;28;20217;-56
2021/04/12 00:11:06;;;;;;;8.20;7.60;;;6.80;99.90;;;7.55;97.13;97881.50;5226142;28;20284;-59
2021/04/12 00:13:46;;;;;;;7.80;7.20;;;6.90;99.90;;;7.58;97.32;97891.00;5227109;28;20205;-56
2021/04/12 00:16:25;;;;;;;6.93;6.43;;;6.90;99.90;;;7.59;96.89;97886.03;5224789;28;20203;-57
2021/04/12 00:19:03;;;;;;;7.50;7.00;;;6.80;99.90;;;7.59;97.40;97898.75;5226675;28;20316;-56
2021/04/12 00:21:42;;;;;;;7.67;7.07;;;6.80;99.90;;;7.61;97.26;97894.66;5221797;28;20199;-58
2021/04/12 00:24:23;;;;;;;8.70;8.00;;;6.80;99.90;;;7.53;96.90;97903.44;5225957;28;20575;-56
2021/04/12 00:27:01;;;;;;;8.37;7.77;;;6.80;99.90;;;7.53;97.00;97918.69;5226401;28;20231;-59
2021/04/12 00:29:46;;;;;;;7.37;6.77;;;6.80;99.90;;;7.53;97.09;97918.69;5226237;28;20606;-58
2021/04/12 00:32:25;;;;;;;6.63;6.20;;;6.70;99.90;;;7.34;95.48;97908.88;5211365;28;20191;-59
2021/04/12 00:35:04;;;;;;;4.63;4.43;;;6.60;99.90;;;7.26;95.72;97910.00;5213592;28;20200;-60
2021/04/12 00:37:41;;;;;;;3.70;3.50;;;6.50;99.90;;;7.20;95.48;97918.06;5225854;28;20594;-57
2021/04/12 00:40:24;;;;;;;3.23;3.13;;;6.40;99.90;;;7.04;93.58;97925.41;5225821;28;20692;-59
2021/04/12 00:43:14;;;;;;;3.50;3.30;;;6.20;99.90;;;6.89;93.53;97926.81;5225993;28;20207;-59
2021/04/12 00:46:23;;;;;;;3.57;3.47;;;6.10;99.90;;;6.94;93.91;97928.03;5225596;28;20217;-59
2021/04/12 00:49:17;;;;;;;3.47;3.37;;;6.10;99.90;;;6.72;92.34;97936.66;5225906;28;20229;-59
2021/04/12 00:52:00;;;;;;;3.17;3.07;;;6.00;99.90;;;6.75;93.24;97935.97;5225506;28;20732;-57
2021/04/12 00:55:12;;;;;;;2.70;2.60;;;6.00;99.90;;;6.60;92.73;97953.53;5207443;28;20193;-58
2021/04/12 00:57:59;;;;;;;3.00;2.90;;;5.80;99.90;;;6.52;93.49;97967.31;5225355;28;20279;-57
2021/04/12 01:00:35;;;;;;;3.03;2.93;;;5.80;99.90;;;6.49;92.76;97972.16;5225690;28;20221;-59
2021/04/12 01:03:50;;;;;;;3.50;3.37;;;5.70;99.90;;;6.48;93.79;97966.19;5215270;28;20193;-58
2021/04/12 01:06:34;;;;;;;3.13;3.00;;;5.70;99.90;;;6.45;93.84;97987.94;5221901;28;20205;-58
2021/04/12 01:10:00;;;;;;;3.17;3.07;;;5.70;99.90;;;6.41;94.41;97988.47;5225710;28;20765;-59
2021/04/12 01:13:48;;;;;;;2.93;2.83;;;5.60;99.90;;;6.22;92.91;98014.13;5157158;28;20281;-59
2021/04/12 01:16:39;;;;;;;2.93;2.83;;;5.40;99.90;;;6.21;94.44;98010.72;5168833;28;20239;-58
2021/04/12 01:19:55;;;;;;;3.03;2.93;;;5.40;99.90;;;6.21;94.49;98012.34;5225662;28;20224;-58
2021/04/12 01:23:21;;;;;;;3.40;3.30;;;5.30;99.90;;;6.15;95.36;98022.91;5224778;28;20200;-59
2021/04/12 01:26:43;;;;;;;3.37;3.27;;;5.40;99.90;;;6.00;94.46;98024.28;5220608;28;20611;-58
2021/04/12 01:30:11;;;;;;;3.17;3.07;;;5.30;99.90;;;5.86;92.20;98026.59;5224902;28;20233;-56
2021/04/12 01:33:52;;;;;;;3.63;3.50;;;5.30;99.90;;;5.94;94.78;98033.97;5223126;28;20283;-58
2021/04/12 01:36:42;;;;;;;3.70;3.60;;;5.20;99.90;;;5.80;94.18;98036.25;5215388;28;20238;-58
2021/04/12 01:39:46;;;;;;;3.63;3.43;;;5.10;99.90;;;5.72;94.53;98046.56;5223250;28;20656;-58
2021/04/12 01:42:40;;;;;;;3.90;3.70;;;5.00;99.90;;;5.69;94.71;98051.41;5225659;28;20289;-59
2021/04/12 01:45:29;;;;;;;4.17;3.97;;;4.80;99.90;;;5.55;94.55;98060.44;5223467;28;20283;-57
2021/04/12 01:48:25;;;;;;;4.30;4.10;;;4.80;99.90;;;5.46;94.30;98070.75;5225422;28;20221;-58
2021/04/12 01:51:23;;;;;;;4.20;4.00;;;4.70;99.90;;;5.34;92.44;98075.72;5224319;28;20228;-56
2021/04/12 01:54:38;;;;;;;4.07;3.87;;;4.60;99.90;;;5.20;93.23;98081.31;5210865;28;20211;-59
2021/04/12 01:57:59;;;;;;;4.53;4.27;;;4.50;99.90;;;5.32;94.84;98089.94;5211409;28;20201;-59
2021/04/12 02:00:50;;;;;;;4.57;4.27;;;4.60;99.90;;;5.15;93.15;98090.19;5201398;28;20739;-57
2021/04/12 02:03:52;;;;;;;4.80;4.53;;;4.50;99.90;;;5.20;95.09;98086.38;5220486;28;20210;-56
2021/04/12 02:06:38;;;;;;;4.70;4.50;;;4.40;99.90;;;5.15;95.22;98101.22;5219729;28;20539;-58
2021/04/12 02:09:30;;;;;;;4.73;4.43;;;4.40;99.90;;;5.14;95.31;98090.97;5224358;28;20293;-59
2021/04/12 02:12:16;;;;;;;4.23;4.03;;;4.40;99.90;;;5.09;93.64;98100.69;5225191;28;20193;-59
2021/04/12 02:15:01;;;;;;;4.90;4.70;;;4.30;99.90;;;5.01;94.84;98110.97;5223622;28;20574;-57
2021/04/12 02:17:53;;;;;;;4.63;4.33;;;4.20;99.90;;;4.99;95.89;98125.19;5224742;28;20644;-58
2021/04/12 02:20:38;;;;;;;4.60;4.40;;;4.30;99.90;;;5.03;95.88;98139.84;5206266;28;20218;-59
2021/04/12 02:23:29;;;;;;;4.37;4.17;;;4.30;99.90;;;5.04;96.20;98136.59;5225103;28;20201;-57
2021/04/12 02:26:28;;;;;;;4.43;4.23;;;4.40;99.90;;;5.05;96.41;98134.16;5215715;28;20201;-56
2021/04/12 02:29:30;;;;;;;4.00;3.80;;;4.40;99.90;;;5.09;96.55;98137.81;5216715;28;20235;-59
2021/04/12 02:32:23;;;;;;;4.97;4.57;;;4.40;99.90;;;5.06;96.67;98146.06;5224923;28;20639;-58
2021/04/12 02:35:14;;;;;;;4.43;4.23;;;4.40;99.90;;;5.16;97.33;98145.19;5219090;28;20633;-59
2021/04/12 02:38:18;;;;;;;4.83;4.53;;;4.50;99.90;;;5.16;96.47;98147.72;5224235;28;20578;-59
2021/04/12 02:41:31;;;;;;;5.47;5.17;;;4.40;99.90;;;5.14;97.05;98145.03;5224434;28;20308;-58
2021/04/12 02:44:32;;;;;;;6.00;5.60;;;4.40;99.90;;;5.21;95.89;98151.53;5212026;28;20562;-58
2021/04/12 02:47:21;;;;;;;6.40;5.90;;;4.40;99.90;;;5.09;96.04;98164.03;5212580;28;20308;-59
2021/04/12 02:50:11;;;;;;;5.53;5.13;;;4.30;99.90;;;4.99;95.64;98163.16;5228483;28;20221;-57
2021/04/12 02:53:01;;;;;;;5.43;5.03;;;4.30;99.90;;;5.06;96.09;98161.25;5227534;28;20392;-59
2021/04/12 02:55:52;;;;;;;5.80;5.40;;;4.30;99.90;;;5.00;96.23;98160.75;5216925;28;20642;-59
2021/04/12 02:59:04;;;;;;;5.30;4.90;;;4.30;99.90;;;4.99;96.42;98163.16;5223895;28;20208;-59
2021/04/12 03:02:34;;;;;;;6.10;5.70;;;4.30;99.90;;;5.12;96.18;98168.47;5228474;28;20204;-57
2021/04/12 03:05:25;;;;;;;5.57;5.17;;;4.20;99.90;;;5.01;95.69;98167.59;5225746;28;20273;-57
2021/04/12 03:08:34;;;;;;;6.00;5.60;;;4.20;99.90;;;4.92;95.02;98177.84;5217544;28;20217;-58
2021/04/12 03:11:47;;;;;;;6.27;5.87;;;4.10;99.90;;;4.84;95.69;98171.25;5227909;28;20663;-59
2021/04/12 03:15:00;;;;;;;6.17;5.77;;;4.10;99.90;;;4.84;95.85;98168.72;5227212;28;20497;-58
2021/04/12 03:18:02;;;;;;;5.87;5.47;;;4.10;99.90;;;4.78;96.17;98177.44;5207311;28;20621;-58
2021/04/12 03:21:19;;;;;;;6.10;5.80;;;4.00;99.90;;;4.79;96.05;98185.16;5223613;28;20460;-58
2021/04/12 03:24:01;;;;;;;5.90;5.50;;;4.00;99.90;;;4.80;96.77;98192.00;5223038;28;20197;-58
2021/04/12 03:27:02;;;;;;;6.17;5.77;;;4.10;99.90;;;4.73;96.40;98208.31;5208280;28;20296;-58
2021/04/12 03:29:45;;;;;;;6.57;5.97;;;4.00;99.90;;;4.77;96.49;98217.06;5224193;28;20692;-59
2021/04/12 03:32:51;;;;;;;6.13;5.73;;;4.00;99.90;;;4.75;96.18;98213.53;5227472;28;20659;-59
2021/04/12 03:35:31;;;;;;;6.57;6.10;;;4.00;99.90;;;4.77;95.74;98221.25;5222293;28;20292;-58
2021/04/12 03:38:19;;;;;;;6.77;6.27;;;4.00;99.90;;;4.72;96.04;98226.81;5226763;28;20202;-57
2021/04/12 03:41:28;;;;;;;7.27;6.77;;;3.90;99.90;;;4.64;96.41;98227.81;5227684;28;20256;-58
2021/04/12 03:44:16;;;;;;;8.00;7.40;;;3.90;99.90;;;4.79;96.61;98232.41;5211720;28;20192;-58
2021/04/12 03:47:34;;;;;;;7.77;7.27;;;4.00;99.90;;;4.76;96.14;98247.34;5227174;28;20291;-56
2021/04/12 03:50:27;;;;;;;6.90;6.40;;;4.00;99.90;;;4.61;95.69;98239.31;5212167;28;20213;-58
2021/04/12 03:53:42;;;;;;;7.13;6.60;;;3.90;99.90;;;4.60;96.16;98229.94;5226958;28;20575;-59
2021/04/12 03:56:31;;;;;;;7.50;6.90;;;3.80;99.90;;;4.58;96.45;98249.16;5227591;28;20287;-59
2021/04/12 03:59:18;;;;;;;9.13;8.43;;;3.80;99.90;;;4.58;96.38;98254.22;5226126;28;20208;-59
2021/04/12 04:02:24;;;;;;;8.13;7.53;;;3.80;99.90;;;4.60;96.19;98257.78;5226112;28;20662;-58
2021/04/12 04:05:24;;;;;;;7.87;7.37;;;3.80;99.90;;;4.50;96.25;98264.56;5227599;28;20205;-57
2021/04/12 04:08:53;;;;;;;8.70;7.90;;;3.80;99.90;;;4.47;96.70;98279.50;5226065;28;20227;-59
2021/04/12 04:11:52;;;;;;;8.23;7.63;;;3.70;99.90;;;4.38;96.29;98282.84;5188108;28;20291;-57
2021/04/12 04:15:14;;;;;;;8.27;7.67;;;3.70;99.90;;;4.38;97.05;98283.75;5224683;28;20284;-59
2021/04/12 04:18:23;;;;;;;8.13;7.43;;;3.70;99.90;;;4.37;96.56;98297.16;5168668;28;20233;-57
2021/04/12 04:21:40;;;;;;;8.13;7.43;;;3.60;99.90;;;4.40;97.37;98302.47;5221970;28;20664;-59
2021/04/12 04:24:43;;;;;;;7.37;6.87;;;3.60;99.90;;;4.37;96.96;98313.97;5225686;28;20549;-59
2021/04/12 04:27:43;;;;;;;8.60;7.90;;;3.60;99.90;;;4.39;97.43;98308.31;5219148;28;20887;-59
2021/04/12 04:30:52;;;;;;;7.90;7.33;;;3.70;99.90;;;4.41;97.39;98316.03;5221316;28;20329;-59
2021/04/12 04:33:47;;;;;;;8.67;8.03;;;3.70;99.90;;;4.38;97.83;98308.16;5222152;28;20258;-59
2021/04/12 04:36:39;;;;;;;8.60;7.83;;;3.60;99.90;;;4.31;96.96;98314.31;5224139;28;20612;-59
2021/04/12 04:39:48;;;;;;;9.03;8.23;;;3.60;99.90;;;4.34;97.63;98322.19;5225788;28;20690;-58
2021/04/12 04:43:00;;;;;;;9.40;8.60;;;3.60;99.90;;;4.44;97.57;98331.50;5225656;28;20192;-60
2021/04/12 04:45:52;;;;;;;9.63;8.83;;;3.70;99.90;;;4.41;98.19;98337.16;5218895;28;20208;-59
2021/04/12 04:49:03;;;;;;;9.83;8.93;;;3.70;99.90;;;4.46;97.98;98340.09;5224213;28;20223;-59
2021/04/12 04:51:59;;;;;;;10.67;9.77;;;3.70;99.90;;;4.50;98.04;98342.16;5225646;28;20202;-59
2021/04/12 04:55:22;;;;;;;9.57;8.77;;;3.70;99.90;;;4.37;96.76;98346.88;5225792;28;20555;-60
2021/04/12 04:58:18;;;;;;;11.00;10.00;;;3.60;99.90;;;4.31;97.45;98347.22;5226359;28;20295;-60
2021/04/12 05:00:58;;;;;;;10.33;9.43;;;3.60;99.90;;;4.36;97.62;98358.66;5213255;28;20214;-59
2021/04/12 05:04:32;;;;;;;11.50;10.50;;;3.60;99.90;;;4.36;97.49;98366.22;5226665;28;20234;-58
2021/04/12 05:07:45;;;;;;;10.90;9.90;;;3.60;99.90;;;4.41;97.24;98379.31;5212165;28;20693;-58
2021/04/12 05:10:43;;;;;;;11.00;10.00;;;3.60;99.90;;;4.41;97.48;98382.72;5225509;28;20227;-59
2021/04/12 05:13:33;;;;;;;11.73;10.73;;;3.70;99.90;;;4.42;97.52;98387.03;5226276;28;20199;-60
2021/04/12 05:16:43;;;;;;;10.90;10.00;;;3.60;99.90;;;4.49;98.02;98394.41;5214273;28;20191;-59
2021/04/12 05:20:00;;;;;;;12.17;11.07;;;3.70;99.90;;;4.38;96.59;98406.84;5212517;28;20210;-59
2021/04/12 05:23:08;;;;;;;10.67;9.77;;;3.60;99.90;;;4.31;96.09;98409.59;5209281;28;20681;-60
2021/04/12 05:26:22;;;;;;;9.77;8.97;;;3.60;99.90;;;4.26;97.19;98411.69;5220228;28;20289;-60
2021/04/12 05:29:10;;;;;;;9.63;8.63;;;3.50;99.90;;;4.25;96.77;98415.00;5220148;28;20223;-60
2021/04/12 05:32:10;;;;;;;9.33;8.53;;;3.50;99.90;;;4.20;97.14;98418.72;5221572;28;20199;-60
2021/04/12 05:35:02;;;;;;;9.77;8.87;;;3.50;99.90;;;4.20;97.21;98422.16;5219185;28;20241;-60
2021/04/12 05:38:28;;;;;;;9.17;8.37;;;3.50;99.90;;;4.22;97.25;98429.91;5222174;28;20642;-60
2021/04/12 05:41:46;;;;;;;9.13;8.33;;;3.40;99.90;;;4.40;96.86;98441.66;5218228;28;20203;-58
2021/04/12 05:44:37;;;;;;;9.10;8.30;;;3.50;99.90;;;4.40;97.55;98445.84;5203186;28;20199;-58
2021/04/12 05:47:30;;;;;;;9.03;8.13;;;3.60;99.90;;;4.33;96.83;98449.47;5219063;28;20197;-58
2021/04/12 05:50:24;;;;;;;9.53;8.63;;;3.50;99.90;;;4.36;97.34;98454.81;5222545;28;20226;-58
2021/04/12 05:53:09;;;;;;;9.20;8.40;;;3.70;99.90;;;4.45;97.29;98460.69;5222057;28;20207;-58
2021/04/12 05:56:45;;;;;;;9.23;8.43;;;3.70;99.90;;;4.53;97.59;98468.09;5214370;28;20209;-57
2021/04/12 05:59:38;;;;;;;10.00;9.10;;;3.70;99.90;;;4.51;97.14;98461.22;5214652;28;20254;-58
2021/04/12 06:02:39;;;;;;;10.07;9.27;;;3.80;99.90;;;4.49;97.06;98462.75;5214022;28;20214;-59
2021/04/12 06:05:22;;;;;;;9.93;9.13;;;3.70;99.90;;;4.55;97.15;98472.53;5212234;28;20286;-56
2021/04/12 06:08:36;;;;;;;9.63;8.83;;;3.80;99.90;;;4.49;96.70;98472.88;5224797;28;20654;-58
2021/04/12 06:11:59;;;;;;;9.47;8.57;;;3.70;99.90;;;4.56;96.59;98483.56;5217171;28;20614;-58
2021/04/12 06:15:08;;;;;;;9.37;8.57;;;3.70;99.90;;;4.58;96.36;98484.56;5194496;28;20194;-56
2021/04/12 06:17:59;;;;;;;9.60;8.70;;;3.80;99.90;;;4.54;96.54;98495.16;5206340;28;20562;-58
2021/04/12 06:21:01;;;;;;;9.23;8.37;;;3.80;99.90;;;4.61;96.54;98493.34;5219966;28;20226;-58
2021/04/12 06:23:59;;;;;;;10.53;9.43;;;3.70;99.90;;;4.63;96.33;98511.19;5226506;28;20240;-58
2021/04/12 06:27:21;;;;;;;9.53;8.70;;;3.80;99.90;;;4.73;96.22;98511.28;5226560;28;20205;-60
2021/04/12 06:30:17;;;;;;;10.07;9.07;;;3.80;99.90;;;4.77;95.64;98499.78;5184372;28;20291;-60
2021/04/12 06:33:35;;;;;;;9.33;8.53;;;3.90;99.90;;;4.72;95.33;98512.00;5215703;28;20283;-60
2021/04/12 06:36:28;;;;;;;9.90;9.07;;;3.90;99.90;;;4.64;95.42;98515.53;5221042;28;20198;-60
2021/04/12 06:39:30;;;;;;;9.63;8.73;;;3.80;99.90;;;4.65;95.57;98525.75;5227730;28;20221;-58
2021/04/12 06:42:58;;;;;;;9.63;8.90;;;3.80;99.90;;;4.64;96.07;98534.13;5184372;28;20723;-59
2021/04/12 06:46:30;;;;;;;9.37;8.57;;;3.80;99.90;;;4.67;95.67;98551.25;5221512;28;20204;-60
2021/04/12 06:50:07;;;;;;;9.30;8.47;;;3.80;99.90;;;4.73;94.92;98554.31;5211768;28;20283;-59
2021/04/12 06:53:33;;;;;;;8.27;7.63;;;3.80;99.90;;;4.64;95.45;98559.44;5185571;28;21503;-59
2021/04/12 06:57:03;;;;;;;8.87;8.07;;;3.80;99.90;;;4.67;95.60;98571.50;5211474;28;20247;-60
2021/04/12 07:00:14;;;;;;;8.83;8.13;;;3.90;99.90;;;4.64;95.27;98571.22;5227781;28;20219;-59
2021/04/12 07:04:08;;;;;;;9.57;8.77;;;3.80;99.90;;;4.64;95.54;98582.22;5218600;28;20204;-58
2021/04/12 07:07:37;;;;;;;9.60;8.70;;;3.90;99.90;;;4.70;96.18;98589.50;5222937;28;20200;-60
2021/04/12 07:10:25;;;;;;;8.57;7.87;;;3.90;99.90;;;4.72;96.71;98593.94;5215428;28;20303;-58
2021/04/12 07:13:14;;;;;;;8.53;7.83;;;3.90;99.90;;;4.82;97.10;98597.31;5211294;28;20204;-59
2021/04/12 07:16:31;;;;;;;8.67;7.97;;;3.90;99.90;;;4.83;96.32;98592.38;5220760;28;20574;-59
2021/04/12 07:19:47;;;;;;;8.40;7.73;;;3.90;99.90;;;4.90;95.59;98602.31;5223271;28;20213;-58
2021/04/12 07:23:13;;;;;;;9.00;8.30;;;4.00;99.90;;;4.86;95.36;98607.84;5226943;28;20190;-58
2021/04/12 07:26:23;;;;;;;9.27;8.43;;;4.00;99.90;;;4.93;95.58;98617.78;5212595;28;20201;-60
2021/04/12 07:29:45;;;;;;;9.30;8.60;;;4.00;99.90;;;5.13;95.27;98627.19;5214479;28;20656;-58
2021/04/12 07:33:25;;;;;;;11.20;10.10;;;4.10;99.90;;;5.08;94.82;98630.06;5219633;28;20592;-59
2021/04/12 07:36:38;;;;;;;11.07;10.20;;;4.10;99.90;;;5.27;95.57;98627.56;5223553;28;20641;-59
2021/04/12 07:40:08;;;;;;;10.67;9.67;;;4.30;99.90;;;5.19;92.31;98637.00;5222839;28;20664;-59
2021/04/12 07:43:38;;;;;;;11.40;10.40;;;4.30;99.90;;;5.13;94.01;98639.88;5226895;28;20665;-60
2021/04/12 07:47:28;;;;;;;11.80;10.80;;;4.20;99.90;;;5.18;94.44;98643.72;5217356;28;20251;-59
2021/04/12 07:50:52;;;;;;;11.23;10.27;;;4.30;99.90;;;5.16;93.49;98649.41;5191541;28;20217;-59
2021/04/12 07:54:18;;;;;;;11.03;10.03;;;4.20;99.90;;;5.11;94.24;98655.69;5215789;28;20306;-59
2021/04/12 07:57:44;;;;;;;11.10;10.20;;;4.10;99.90;;;5.16;92.65;98654.47;5226923;28;20208;-58
2021/04/12 08:01:01;;;;;;;11.33;10.33;;;4.20;99.90;;;5.17;92.75;98643.56;5220784;28;20232;-59
2021/04/12 08:04:43;;;;;;;10.70;9.80;;;4.30;99.90;;;5.35;93.53;98650.31;5225141;28;20305;-59
2021/04/12 08:08:13;;;;;;;10.70;9.80;;;4.30;99.90;;;5.31;92.24;98645.69;5200374;28;20617;-60
2021/04/12 08:11:47;;;;;;;10.60;9.80;;;4.30;99.90;;;5.56;92.68;98655.50;5216671;28;20221;-60
2021/04/12 08:15:34;;;;;;;13.03;11.67;;;4.30;99.90;;;5.54;92.05;98657.00;5225705;28;20545;-59
2021/04/12 08:18:55;;;;;;;11.17;10.23;;;4.40;99.90;;;5.53;92.11;98658.66;5221459;28;20673;-59
2021/04/12 08:22:17;;;;;;;10.20;9.30;;;4.40;99.90;;;5.58;92.75;98662.50;5208489;28;20706;-60
2021/04/12 08:25:47;;;;;;;11.23;10.27;;;4.50;99.90;;;5.76;91.57;98672.50;5211730;28;20216;-60
2021/04/12 08:29:12;;;;;;;11.43;10.53;;;4.50;99.90;;;5.66;91.00;98665.69;5225329;28;20217;-58
2021/04/12 08:33:09;;;;;;;11.10;10.10;;;4.50;99.90;;;5.71;92.75;98674.63;5225304;28;20295;-58
2021/04/12 08:36:55;;;;;;;11.10;10.20;;;4.60;99.90;;;5.77;92.60;98675.16;5210484;28;20296;-59
2021/04/12 08:40:06;;;;;;;11.83;10.83;;;4.60;99.90;;;5.80;91.37;98684.69;5158350;28;20219;-59
2021/04/12 08:43:15;;;;;;;12.23;11.10;;;4.60;99.90;;;5.68;89.72;98681.94;5223174;28;20208;-59
2021/04/12 08:46:44;;;;;;;11.87;10.87;;;4.60;99.90;;;5.71;90.67;98686.41;5223657;28;20521;-56
2021/04/12 08:50:08;;;;;;;11.30;10.37;;;4.60;99.90;;;5.64;88.46;98678.25;5194625;28;20689;-60
2021/04/12 08:53:40;;;;;;;12.30;11.13;;;4.50;99.90;;;5.66;91.22;98691.06;5207096;28;20204;-57
2021/04/12 08:57:36;;;;;;;12.97;11.77;;;4.60;99.90;;;5.74;91.90;98690.09;5160524;28;20712;-59
2021/04/12 09:00:36;;;;;;;12.87;11.80;;;4.70;99.90;;;5.96;92.31;98692.94;5066088;28;20231;-58
2021/04/12 09:03:48;;;;;;;13.43;12.13;;;4.70;99.90;;;6.01;91.26;98696.78;5219385;28;20527;-60
2021/04/12 09:07:03;;;;;;;12.67;11.67;;;4.80;99.90;;;5.92;91.31;98700.09;5220544;28;20204;-60
2021/04/12 09:10:01;;;;;;;13.73;12.43;;;4.80;99.90;;;5.76;89.49;98700.41;5214508;28;20243;-59
2021/04/12 09:13:02;;;;;;;13.53;12.30;;;4.80;99.90;;;5.70;90.64;98703.28;5205152;28;20699;-58
2021/04/12 09:16:20;;;;;;;13.87;12.70;;;4.60;99.90;;;5.75;92.67;98709.66;5214372;28;20202;-60
2021/04/12 09:19:36;;;;;;;14.70;13.23;;;4.60;99.90;;;5.70;92.83;98717.59;5219528;28;20275;-55
2021/04/12 09:23:10;;;;;;;14.43;12.97;;;4.70;99.90;;;5.70;92.07;98723.56;5220266;28;20200;-58
2021/04/12 09:26:40;;;;;;;15.33;13.93;;;4.70;99.90;;;5.76;92.60;98729.19;5197127;28;20736;-57
2021/04/12 09:29:51;;;;;;;14.47;13.17;;;4.70;99.90;;;5.74;92.53;98728.16;5205984;28;20214;-60
2021/04/12 09:33:10;;;;;;;14.33;13.10;;;4.70;99.90;;;5.64;92.15;98731.50;5215293;28;20240;-58
2021/04/12 09:36:10;;;;;;;15.30;13.90;;;4.60;99.90;;;5.65;93.28;98722.25;5220658;28;20204;-58
2021/04/12 09:39:43;;;;;;;16.47;14.87;;;4.70;99.90;;;5.63;93.38;98728.81;5222894;28;20195;-60
2021/04/12 09:42:58;;;;;;;16.60;15.10;;;4.70;99.90;;;5.68;94.02;98729.25;5203606;28;20204;-59
2021/04/12 09:46:21;;;;;;;17.07;15.33;;;4.70;99.90;;;5.50;89.99;98731.91;5219884;28;20549;-60
2021/04/12 09:49:53;;;;;;;17.03;15.43;;;4.60;99.90;;;5.28;89.15;98734.13;5189140;28;20233;-59
2021/04/12 09:52:42;;;;;;;18.07;16.47;;;4.20;99.90;;;5.37;90.52;98737.50;5214615;28;20277;-59
2021/04/12 09:56:09;;;;;;;18.47;16.77;;;4.40;99.90;;;5.47;91.58;98738.34;5221206;28;20591;-60
2021/04/12 09:59:10;;;;;;;19.63;17.63;;;4.50;99.90;;;5.54;91.66;98745.75;5214282;28;20227;-58
2021/04/12 10:02:13;;;;;;;19.73;17.73;;;4.50;99.90;;;5.50;90.40;98754.72;5210792;28;20199;-59
2021/04/12 10:05:19;;;;;;;19.40;17.50;;;4.40;99.90;;;5.57;92.64;98746.91;5210760;28;20206;-59
2021/04/12 10:08:20;;;;;;;21.03;19.00;;;4.60;99.90;;;5.74;92.65;98750.97;5225633;28;20582;-60
2021/04/12 10:11:01;;;;;;;22.67;18.77;;;4.70;99.90;;;5.85;93.26;98752.81;5222313;28;20576;-59
2021/04/12 10:13:42;;;;;;;21.03;18.93;;;4.90;99.90;;;5.88;92.74;98753.09;5229388;28;20201;-60
2021/04/12 10:16:21;;;;;;;20.43;18.33;;;4.90;99.90;;;6.05;92.51;98754.63;5224071;28;20183;-60
2021/04/12 10:19:09;;;;;;;22.67;20.37;;;4.90;99.90;;;6.06;91.35;98760.59;5225475;28;20216;-59
2021/04/12 10:21:50;;;;;;;22.80;20.40;;;5.00;99.90;;;6.22;92.32;98767.94;5216864;28;20202;-60
2021/04/12 10:24:27;;;;;;;20.40;18.30;;;5.00;99.90;;;6.37;90.38;98763.31;5215683;28;20283;-60
2021/04/12 10:27:06;;;;;;;21.53;19.43;;;5.10;99.90;;;6.44;91.12;98770.69;5229106;28;20696;-61
2021/04/12 10:29:43;;;;;;;19.70;17.70;;;5.20;99.90;;;6.42;90.12;98757.88;5228571;28;20221;-60
2021/04/12 10:32:21;;;;;;;18.47;16.77;;;5.20;99.90;;;6.39;89.61;98754.19;5218438;28;20569;-60
2021/04/12 10:34:59;;;;;;;20.60;18.70;;;5.20;99.90;;;6.43;89.04;98758.78;5211437;28;20197;-59
2021/04/12 10:37:40;;;;;;;20.33;18.30;;;5.20;99.90;;;6.26;88.40;98770.88;5226480;28;20213;-59
2021/04/12 10:40:22;;;;;;;20.07;18.07;;;5.20;99.90;;;6.25;86.86;98769.09;5220581;28;20695;-59
2021/04/12 10:43:03;;;;;;;19.60;17.73;;;5.20;99.90;;;6.27;89.77;98762.50;5213480;28;20705;-60
2021/04/12 10:45:46;;;;;;;18.47;16.77;;;5.20;99.90;;;6.28;90.32;98779.50;5227408;28;20279;-60
2021/04/12 10:48:27;;;;;;;18.40;16.70;;;5.30;99.90;;;6.33;90.95;98777.41;5228036;28;20255;-60
2021/04/12 10:51:25;;;;;;;19.37;17.50;;;5.30;99.90;;;6.35;89.28;98774.97;5227175;28;20188;-60
2021/04/12 10:54:50;;;;;;;18.17;16.50;;;5.30;99.90;;;6.46;84.78;98774.28;5220036;28;20309;-60
2021/04/12 10:57:36;;;;;;;16.37;14.97;;;5.50;99.90;;;6.49;85.59;98772.88;5214597;28;20284;-58
2021/04/12 11:00:41;;;;;;;17.40;15.60;;;5.50;99.90;;;6.63;85.90;98779.16;5223727;28;20757;-59
2021/04/12 11:03:48;;;;;;;17.30;15.83;;;5.70;99.90;;;6.88;85.17;98774.56;5228746;28;20620;-60
2021/04/12 11:06:56;;;;;;;16.43;14.97;;;5.90;99.90;;;7.02;83.43;98765.59;5221638;28;20704;-59
2021/04/12 11:09:55;;;;;;;15.87;14.37;;;6.10;99.90;;;7.06;83.19;98772.69;5190830;28;20225;-60
2021/04/12 11:12:54;;;;;;;14.27;13.07;;;6.20;99.90;;;7.14;79.87;98773.38;5224593;28;20273;-59
2021/04/12 11:15:39;;;;;;;15.10;13.70;;;6.30;99.90;;;7.23;82.17;98777.56;5224839;28;20211;-60
2021/04/12 11:18:27;;;;;;;14.03;12.90;;;6.30;99.90;;;7.29;84.30;98771.22;5227944;28;20196;-59
2021/04/12 11:21:19;;;;;;;12.00;11.00;;;6.30;99.90;;;7.36;82.19;98788.78;5223776;28;20629;-57
2021/04/12 11:24:05;;;;;;;10.83;9.93;;;6.30;99.90;;;7.26;78.87;98778.59;5225750;28;20198;-59
2021/04/12 11:27:32;;;;;;;11.13;10.27;;;6.30;99.90;;;7.36;79.60;98778.63;5220068;28;20650;-58
2021/04/12 11:30:14;;;;;;;11.20;10.40;;;6.30;99.90;;;7.45;76.35;98775.19;5194150;28;20232;-60
2021/04/12 11:33:14;;;;;;;10.33;9.53;;;6.50;99.90;;;7.66;78.52;98776.06;5234594;22;20262;-60
2021/04/12 11:36:08;;;;;;;9.93;9.13;;;6.70;99.90;;;7.67;75.61;98777.88;5213277;28;20283;-60
2021/04/12 11:38:45;;;;;;;10.53;9.53;;;6.80;99.90;;;7.74;75.24;98778.38;5228122;28;20672;-60
2021/04/12 11:41:22;;;;;;;9.50;8.70;;;6.90;99.90;;;7.74;74.56;98788.56;5227781;28;20224;-60
2021/04/12 11:43:59;;;;;;;10.13;9.23;;;6.80;99.90;;;7.92;77.40;98777.34;5219928;28;20201;-59
2021/04/12 11:46:54;;;;;;;9.13;8.43;;;6.90;99.90;;;7.97;73.17;98778.59;5226195;28;20193;-59
2021/04/12 11:49:37;;;;;;;9.47;8.67;;;6.90;99.90;;;7.93;75.48;98784.22;5223723;28;20292;-57
2021/04/12 11:52:16;;;;;;;9.77;9.07;;;6.90;99.90;;;7.97;76.21;98778.59;5217024;28;20252;-57
2021/04/12 11:55:05;;;;;;;8.97;8.27;;;6.90;99.90;;;7.77;70.44;98779.50;5226925;28;20497;-57
2021/04/12 11:57:45;;;;;;;9.57;8.87;;;6.70;99.90;;;7.80;73.31;98796.69;5226883;28;20416;-59
2021/04/12 12:00:23;;;;;;;8.73;8.03;;;6.80;99.90;;;7.83;75.57;98791.84;5226620;28;20189;-56
2021/04/12 12:03:11;;;;;;;8.77;8.03;;;6.80;99.90;;;7.98;72.60;98800.75;5227608;28;20216;-58
2021/04/12 12:06:02;;;;;;;9.43;8.63;;;6.90;99.90;;;7.92;71.08;98795.16;5223990;28;20738;-59
2021/04/12 12:08:51;;;;;;;9.13;8.33;;;6.90;99.90;;;7.96;75.10;98796.31;5206333;28;20218;-59
2021/04/12 12:11:34;;;;;;;9.50;8.80;;;7.00;99.90;;;7.98;74.35;98804.94;5222484;28;20251;-59
2021/04/12 12:14:24;;;;;;;9.50;8.80;;;7.00;99.90;;;8.09;74.30;98810.16;5208772;28;20189;-58
2021/04/12 12:16:57;;;;;;;11.20;10.30;;;7.10;99.90;;;8.40;75.50;98811.81;5212397;28;20189;-59
2021/04/12 12:19:45;;;;;;;10.20;9.50;;;7.10;99.90;;;8.42;73.59;98805.19;5225570;28;20689;-59
2021/04/12 12:22:26;;;;;;;11.10;10.20;;;7.20;99.90;;;8.40;74.51;98807.59;5225585;28;20652;-58
2021/04/12 12:25:05;;;;;;;9.97;9.17;;;7.20;99.90;;;8.37;67.71;98811.53;5220738;28;20181;-59
2021/04/12 12:27:40;;;;;;;9.87;9.07;;;7.20;99.90;;;8.33;68.84;98810.41;5216967;28;20205;-59
2021/04/12 12:30:22;;;;;;;9.27;8.57;;;7.30;99.90;;;8.40;66.17;98797.41;5215592;28;20636;-58
2021/04/12 12:33:05;;;;;;;9.73;8.93;;;7.20;99.90;;;8.28;64.90;98806.56;5225103;28;20237;-57
2021/04/12 12:35:48;;;;;;;9.27;8.53;;;7.20;99.90;;;8.22;67.36;98811.19;5218924;28;20190;-57
2021/04/12 12:38:58;;;;;;;8.47;7.87;;;7.20;99.90;;;8.23;67.21;98812.94;5204532;28;20685;-58
2021/04/12 12:41:37;;;;;;;8.67;7.97;;;7.30;99.90;;;8.43;71.47;98797.66;5222698;28;20311;-59
2021/04/12 12:44:13;;;;;;;7.63;7.03;;;7.30;99.90;;;8.48;65.27;98806.56;5219986;28;20270;-59
2021/04/12 12:46:46;;;;;;;7.37;6.83;;;7.30;99.90;;;8.48;60.96;98806.56;5219309;28;20280;-59
2021/04/12 12:49:25;;;;;;;6.80;6.30;;;7.40;99.90;;;8.54;63.66;98811.25;5224476;28;20638;-57
2021/04/12 12:52:01;;;;;;;5.90;5.50;;;7.50;99.90;;;8.55;60.00;98810.47;5223041;28;20205;-57
2021/04/12 12:54:40;;;;;;;5.13;4.83;;;7.50;99.90;;;8.70;61.08;98810.81;5213559;28;20197;-57